Time;durP1;ratioP1;P1;durP2;ratioP2;P2;SDS_P1;SDS_P2;PMS_P1;PMS_P2;Temp;Humidity;BMP_temperature;BMP_pressure;BME280_temperature;BME280_humidity;BME280_pressure;Samples;Min_cycle;Max_cycle;Signal;HPM_P1;HPM_P2
2021/04/03 00:01:18;;;;;;;;;;;24.80;37.00;;;;;;5113562;28;19915;-52
2021/04/03 00:03:43;;;;;;;;;;;24.70;37.00;;;;;;5114546;28;19980;-52
2021/04/03 00:06:09;;;;;;;;;;;24.80;37.10;;;;;;5119510;27;20697;-52
2021/04/03 00:08:35;;;;;;;;;;;24.70;37.10;;;;;;5114199;28;19917;-52
2021/04/03 00:11:03;;;;;;;;;;;24.70;37.10;;;;;;5114028;28;19912;-51
2021/04/03 00:13:31;;;;;;;;;;;24.70;37.10;;;;;;5113913;28;19912;-52
2021/04/03 00:15:57;;;;;;;;;;;24.70;37.20;;;;;;5113525;28;19918;-52
2021/04/03 00:18:23;;;;;;;;;;;24.70;37.20;;;;;;5114096;28;19947;-52
2021/04/03 00:20:49;;;;;;;;;;;24.60;37.20;;;;;;5113434;28;19915;-52
2021/04/03 00:23:17;;;;;;;;;;;24.60;37.20;;;;;;5113882;28;19908;-52
2021/04/03 00:25:43;;;;;;;;;;;24.60;37.30;;;;;;5113867;28;20373;-52
2021/04/03 00:28:09;;;;;;;;;;;24.60;37.30;;;;;;5113732;28;20007;-52
2021/04/03 00:30:34;;;;;;;;;;;24.60;37.40;;;;;;5113980;28;20384;-52
2021/04/03 00:33:02;;;;;;;;;;;24.60;37.40;;;;;;5113789;28;20391;-52
2021/04/03 00:35:29;;;;;;;;;;;24.50;37.40;;;;;;5113656;28;19908;-52
2021/04/03 00:37:58;;;;;;;;;;;24.60;37.60;;;;;;5095600;28;19923;-52
2021/04/03 00:40:24;;;;;;;;;;;24.60;37.60;;;;;;5113301;28;19912;-52
2021/04/03 00:42:50;;;;;;;;;;;24.60;38.20;;;;;;5114748;28;19923;-52
2021/04/03 00:45:16;;;;;;;;;;;24.60;37.60;;;;;;5117701;28;20010;-53
2021/04/03 00:47:42;;;;;;;;;;;24.60;37.70;;;;;;5117648;28;20000;-52
2021/04/03 00:50:10;;;;;;;;;;;24.50;37.60;;;;;;5099356;28;19918;-52
2021/04/03 00:52:36;;;;;;;;;;;24.60;37.70;;;;;;5118041;28;19912;-53
2021/04/03 00:55:03;;;;;;;;;;;24.50;37.60;;;;;;5099109;28;19951;-52
2021/04/03 00:57:29;;;;;;;;;;;24.50;37.60;;;;;;5099451;28;19916;-52
2021/04/03 00:59:56;;;;;;;;;;;24.50;37.70;;;;;;5099093;28;20019;-52
2021/04/03 01:02:23;;;;;;;;;;;24.50;37.70;;;;;;5099086;28;19920;-52
2021/04/03 01:04:49;;;;;;;;;;;24.50;37.70;;;;;;5117583;28;19951;-52
2021/04/03 01:07:16;;;;;;;;;;;24.50;37.80;;;;;;5117369;28;19916;-52
2021/04/03 01:09:43;;;;;;;;;;;24.50;37.80;;;;;;5098974;28;20327;-52
2021/04/03 01:12:15;;;;;;;;;;;24.40;37.80;;;;;;5098743;28;19915;-52
2021/04/03 01:14:46;;;;;;;;;;;24.40;37.80;;;;;;5117274;28;19916;-52
2021/04/03 01:17:32;;;;;;;;;;;24.40;37.80;;;;;;5116733;28;19912;-52
2021/04/03 01:20:08;;;;;;;;;;;24.40;37.90;;;;;;5049220;28;19911;-52
2021/04/03 01:23:11;;;;;;;;;;;24.40;37.90;;;;;;5098423;28;20441;-52
2021/04/03 01:25:57;;;;;;;;;;;24.40;37.90;;;;;;5037335;28;19948;-52
2021/04/03 01:28:40;;;;;;;;;;;24.30;37.90;;;;;;5095226;28;19968;-52
2021/04/03 01:31:07;;;;;;;;;;;24.30;38.00;;;;;;5096435;28;20435;-52
2021/04/03 01:33:34;;;;;;;;;;;24.30;38.00;;;;;;5097355;28;19908;-52
2021/04/03 01:36:03;;;;;;;;;;;24.30;38.00;;;;;;5098660;28;20457;-52
2021/04/03 01:38:37;;;;;;;;;;;24.30;38.00;;;;;;5098609;28;19908;-51
2021/04/03 01:41:07;;;;;;;;;;;24.30;38.00;;;;;;5078102;28;20010;-52
2021/04/03 01:43:41;;;;;;;;;;;24.30;38.10;;;;;;5096816;28;20393;-51
2021/04/03 01:46:09;;;;;;;;;;;24.30;38.10;;;;;;5078084;28;19937;-52
2021/04/03 01:48:38;;;;;;;;;;;24.30;38.10;;;;;;5096040;28;19908;-52
2021/04/03 01:51:05;;;;;;;;;;;24.30;38.10;;;;;;5098396;28;19915;-52
2021/04/03 01:53:32;;;;;;;;;;;24.30;38.20;;;;;;5104505;27;20003;-52
2021/04/03 01:56:03;;;;;;;;;;;24.20;38.20;;;;;;5117036;27;19945;-52
2021/04/03 01:58:39;;;;;;;;;;;24.20;38.20;;;;;;5098251;28;20330;-51
2021/04/03 02:01:05;;;;;;;;;;;24.20;38.20;;;;;;5097924;28;20287;-52
2021/04/03 02:03:32;;;;;;;;;;;24.20;38.30;;;;;;5116380;28;19930;-52
2021/04/03 02:05:58;;;;;;;;;;;24.20;38.30;;;;;;5097815;28;19919;-52
2021/04/03 02:08:44;;;;;;;;;;;24.20;38.30;;;;;;5116761;28;20242;-52
2021/04/03 02:11:37;;;;;;;;;;;24.20;38.30;;;;;;5095901;28;20292;-52
2021/04/03 02:14:19;;;;;;;;;;;24.20;38.30;;;;;;5097876;28;19990;-52
2021/04/03 02:16:45;;;;;;;;;;;24.10;38.30;;;;;;5097961;28;19916;-52
2021/04/03 02:19:12;;;;;;;;;;;24.10;38.40;;;;;;5097778;28;19995;-52
2021/04/03 02:21:41;;;;;;;;;;;24.10;38.40;;;;;;5115894;28;19928;-52
2021/04/03 02:24:07;;;;;;;;;;;24.10;38.40;;;;;;5097678;28;19919;-52
2021/04/03 02:26:37;;;;;;;;;;;24.00;38.50;;;;;;5097665;28;20017;-52
2021/04/03 02:29:05;;;;;;;;;;;24.10;38.50;;;;;;5097823;28;19994;-52
2021/04/03 02:31:33;;;;;;;;;;;24.00;38.50;;;;;;5097346;28;19946;-52
2021/04/03 02:33:59;;;;;;;;;;;24.00;38.50;;;;;;5115609;28;19973;-52
2021/04/03 02:36:25;;;;;;;;;;;24.00;38.60;;;;;;5115581;28;20003;-52
2021/04/03 02:38:52;;;;;;;;;;;24.00;38.60;;;;;;5115597;28;19919;-52
2021/04/03 02:41:20;;;;;;;;;;;24.00;38.60;;;;;;5097163;28;19939;-52
2021/04/03 02:44:03;;;;;;;;;;;24.00;38.70;;;;;;5097005;28;19908;-52
2021/04/03 02:46:30;;;;;;;;;;;24.00;38.70;;;;;;5095452;28;19919;-52
2021/04/03 02:48:59;;;;;;;;;;;24.00;38.70;;;;;;5097374;28;19912;-51
2021/04/03 02:51:36;;;;;;;;;;;24.00;38.80;;;;;;5076959;28;20377;-51
2021/04/03 02:54:06;;;;;;;;;;;24.00;38.80;;;;;;5094806;28;20324;-52
2021/04/03 02:56:32;;;;;;;;;;;23.90;38.70;;;;;;5095054;28;19913;-51
2021/04/03 02:58:59;;;;;;;;;;;23.90;38.80;;;;;;5094926;28;19915;-52
2021/04/03 03:01:25;;;;;;;;;;;24.00;38.80;;;;;;5096139;28;19958;-57
2021/04/03 03:03:57;;;;;;;;;;;24.00;38.90;;;;;;5097088;28;20387;-56
2021/04/03 03:06:25;;;;;;;;;;;23.90;38.80;;;;;;5096416;28;19916;-56
2021/04/03 03:08:53;;;;;;;;;;;23.90;38.80;;;;;;5097087;28;19915;-56
2021/04/03 03:11:24;;;;;;;;;;;23.90;38.90;;;;;;5077239;28;19919;-56
2021/04/03 03:13:52;;;;;;;;;;;23.90;38.90;;;;;;5095979;28;20303;-57
2021/04/03 03:16:19;;;;;;;;;;;23.90;38.90;;;;;;5115252;28;19912;-57
2021/04/03 03:18:47;;;;;;;;;;;23.90;38.90;;;;;;5097599;28;19912;-57
2021/04/03 03:21:15;;;;;;;;;;;23.90;39.00;;;;;;5114942;28;19963;-56
2021/04/03 03:23:41;;;;;;;;;;;23.90;39.00;;;;;;5096834;28;19915;-56
2021/04/03 03:26:07;;;;;;;;;;;23.90;39.00;;;;;;5115248;28;19918;-56
2021/04/03 03:28:38;;;;;;;;;;;23.90;39.00;;;;;;5096908;28;20289;-57
2021/04/03 03:31:05;;;;;;;;;;;23.90;39.10;;;;;;5096604;28;19992;-56
2021/04/03 03:33:32;;;;;;;;;;;23.90;39.10;;;;;;5096805;28;19943;-56
2021/04/03 03:35:59;;;;;;;;;;;23.90;39.10;;;;;;5096426;28;19912;-57
2021/04/03 03:38:26;;;;;;;;;;;23.90;39.10;;;;;;5114963;28;19915;-56
2021/04/03 03:40:54;;;;;;;;;;;23.80;39.10;;;;;;5114967;27;19920;-57
2021/04/03 03:43:24;;;;;;;;;;;23.80;39.20;;;;;;5117011;27;19911;-57
2021/04/03 03:45:51;;;;;;;;;;;23.80;39.20;;;;;;5102764;28;19919;-57
2021/04/03 03:48:18;;;;;;;;;;;23.80;39.20;;;;;;5114866;28;19908;-57
2021/04/03 03:50:45;;;;;;;;;;;23.80;39.20;;;;;;5096359;28;20258;-57
2021/04/03 03:53:11;;;;;;;;;;;23.80;39.30;;;;;;5096562;28;19915;-56
2021/04/03 03:55:37;;;;;;;;;;;23.80;39.30;;;;;;5096428;28;19912;-56
2021/04/03 03:58:10;;;;;;;;;;;23.80;39.30;;;;;;5096417;28;19912;-57
2021/04/03 04:00:41;;;;;;;;;;;23.70;39.30;;;;;;5114717;28;19968;-57
2021/04/03 04:03:11;;;;;;;;;;;23.70;39.30;;;;;;5096251;28;19948;-57
2021/04/03 04:05:45;;;;;;;;;;;23.70;39.30;;;;;;5096026;28;19916;-57
2021/04/03 04:08:14;;;;;;;;;;;23.70;39.40;;;;;;5096353;28;20285;-57
2021/04/03 04:10:41;;;;;;;;;;;23.70;39.40;;;;;;5095932;28;19933;-57
2021/04/03 04:13:09;;;;;;;;;;;23.70;39.40;;;;;;5096334;28;19916;-57
2021/04/03 04:15:38;;;;;;;;;;;23.70;39.50;;;;;;5114556;28;20019;-57
2021/04/03 04:18:04;;;;;;;;;;;23.70;39.50;;;;;;5114228;28;19918;-56
2021/04/03 04:20:32;;;;;;;;;;;23.70;39.50;;;;;;5095999;28;20284;-56
2021/04/03 04:23:02;;;;;;;;;;;23.70;39.50;;;;;;5092616;28;19920;-56
2021/04/03 04:25:34;;;;;;;;;;;23.70;39.60;;;;;;5092604;28;19923;-56
2021/04/03 04:28:02;;;;;;;;;;;23.70;39.60;;;;;;5092525;28;20357;-56
2021/04/03 04:30:28;;;;;;;;;;;23.70;39.60;;;;;;5093746;28;19912;-57
2021/04/03 04:33:01;;;;;;;;;;;23.70;39.60;;;;;;5092657;28;19912;-57
2021/04/03 04:35:30;;;;;;;;;;;23.70;39.70;;;;;;5092560;28;19985;-56
2021/04/03 04:37:59;;;;;;;;;;;23.70;39.70;;;;;;5093787;28;20362;-56
2021/04/03 04:40:28;;;;;;;;;;;23.70;39.70;;;;;;5092598;28;19951;-56
2021/04/03 04:42:54;;;;;;;;;;;23.60;39.70;;;;;;5093095;28;19924;-57
2021/04/03 04:45:25;;;;;;;;;;;23.60;39.80;;;;;;5092260;28;19972;-57
2021/04/03 04:47:52;;;;;;;;;;;23.60;39.80;;;;;;5092582;28;19920;-57
2021/04/03 04:50:19;;;;;;;;;;;23.60;39.80;;;;;;5092252;28;20269;-56
2021/04/03 04:52:47;;;;;;;;;;;23.60;39.80;;;;;;5092504;28;19912;-56
2021/04/03 04:55:13;;;;;;;;;;;23.60;39.90;;;;;;5093490;28;20369;-56
2021/04/03 04:57:42;;;;;;;;;;;23.60;39.90;;;;;;5092733;28;20376;-57
2021/04/03 05:00:14;;;;;;;;;;;23.60;39.90;;;;;;5092396;28;19912;-58
2021/04/03 05:02:53;;;;;;;;;;;23.60;39.90;;;;;;5091485;28;19916;-58
2021/04/03 05:05:19;;;;;;;;;;;23.60;40.00;;;;;;5092613;28;20011;-57
2021/04/03 05:07:45;;;;;;;;;;;23.60;40.00;;;;;;5093481;28;20337;-58
2021/04/03 05:10:11;;;;;;;;;;;23.60;40.00;;;;;;5093910;28;19919;-58
2021/04/03 05:12:37;;;;;;;;;;;23.60;40.10;;;;;;5093615;28;19966;-57
2021/04/03 05:15:04;;;;;;;;;;;23.50;40.00;;;;;;5093236;28;19912;-56
2021/04/03 05:17:30;;;;;;;;;;;23.50;40.10;;;;;;5093399;28;20003;-56
2021/04/03 05:19:56;;;;;;;;;;;23.50;40.10;;;;;;5092368;28;19958;-56
2021/04/03 05:22:21;;;;;;;;;;;23.50;40.10;;;;;;5107094;28;19968;-56
2021/04/03 05:24:47;;;;;;;;;;;23.50;40.20;;;;;;5113726;28;20421;-56
2021/04/03 05:27:13;;;;;;;;;;;23.40;40.20;;;;;;5113387;28;19958;-57
2021/04/03 05:29:39;;;;;;;;;;;23.40;40.20;;;;;;5121417;27;20052;-56
2021/04/03 05:32:06;;;;;;;;;;;23.40;40.20;;;;;;5126838;27;19946;-56
2021/04/03 05:34:32;;;;;;;;;;;23.40;40.30;;;;;;5117057;28;19911;-56
2021/04/03 05:36:57;;;;;;;;;;;23.40;40.30;;;;;;5117063;28;20399;-56
2021/04/03 05:39:23;;;;;;;;;;;23.40;40.30;;;;;;5117317;28;19919;-56
2021/04/03 05:41:49;;;;;;;;;;;23.40;40.40;;;;;;5098617;28;19919;-56
2021/04/03 05:44:16;;;;;;;;;;;23.40;40.40;;;;;;5117377;28;20303;-56
2021/04/03 05:46:42;;;;;;;;;;;23.40;41.00;;;;;;5116948;28;19963;-56
2021/04/03 05:49:08;;;;;;;;;;;23.40;40.50;;;;;;5117047;28;19912;-57
2021/04/03 05:51:34;;;;;;;;;;;23.30;40.40;;;;;;5116929;28;19954;-56
2021/04/03 05:54:01;;;;;;;;;;;23.30;40.50;;;;;;5098535;28;19908;-51
2021/04/03 05:56:28;;;;;;;;;;;23.30;40.50;;;;;;5098015;28;19915;-51
2021/04/03 05:58:53;;;;;;;;;;;23.30;40.60;;;;;;5116500;28;19943;-53
2021/04/03 06:01:19;;;;;;;;;;;23.40;40.60;;;;;;5116165;28;19959;-52
2021/04/03 06:03:45;;;;;;;;;;;23.30;40.60;;;;;;5115597;28;19916;-52
2021/04/03 06:06:11;;;;;;;;;;;23.30;40.70;;;;;;5112133;28;19961;-51
2021/04/03 06:08:37;;;;;;;;;;;23.30;40.70;;;;;;5115043;27;20311;-51
2021/04/03 06:11:10;;;;;;;;;;;23.30;40.70;;;;;;5115693;28;19912;-51
2021/04/03 06:13:36;;;;;;;;;;;23.30;40.70;;;;;;5116003;28;19911;-51
2021/04/03 06:16:22;;;;;;;;;;;23.30;40.70;;;;;;5097532;28;20353;-51
2021/04/03 06:18:47;;;;;;;;;;;23.30;40.80;;;;;;5115750;28;19911;-52
2021/04/03 06:21:13;;;;;;;;;;;23.30;40.80;;;;;;5117490;27;20003;-52
2021/04/03 06:23:39;;;;;;;;;;;23.30;40.90;;;;;;5115835;28;19966;-52
2021/04/03 06:26:05;;;;;;;;;;;23.30;40.90;;;;;;5115548;28;19961;-53
2021/04/03 06:28:32;;;;;;;;;;;23.30;40.90;;;;;;5115825;28;19912;-52
2021/04/03 06:31:19;;;;;;;;;;;23.30;41.00;;;;;;5115010;28;19912;-52
2021/04/03 06:33:45;;;;;;;;;;;23.20;40.90;;;;;;5115475;28;19922;-52
2021/04/03 06:36:12;;;;;;;;;;;23.20;40.90;;;;;;5115553;28;19912;-52
2021/04/03 06:38:39;;;;;;;;;;;23.30;41.00;;;;;;5115648;28;20414;-52
2021/04/03 06:41:21;;;;;;;;;;;23.20;41.10;;;;;;5114648;28;19951;-51
2021/04/03 06:44:06;;;;;;;;;;;23.20;41.10;;;;;;5079911;28;19971;-52
2021/04/03 06:46:32;;;;;;;;;;;23.20;41.10;;;;;;5114321;28;20315;-52
2021/04/03 06:48:58;;;;;;;;;;;23.20;41.20;;;;;;5096188;28;19908;-52
2021/04/03 06:51:25;;;;;;;;;;;23.20;41.20;;;;;;5114104;28;19951;-52
2021/04/03 06:53:55;;;;;;;;;;;23.20;41.20;;;;;;5096872;28;19919;-52
2021/04/03 06:56:22;;;;;;;;;;;23.20;41.30;;;;;;5115085;28;19912;-52
2021/04/03 06:58:52;;;;;;;;;;;23.20;41.30;;;;;;5114911;28;19916;-53
2021/04/03 07:01:18;;;;;;;;;;;23.20;41.30;;;;;;5114501;28;20293;-53
2021/04/03 07:03:49;;;;;;;;;;;23.20;41.30;;;;;;5115115;28;19908;-53
2021/04/03 07:06:15;;;;;;;;;;;23.20;41.40;;;;;;5114567;28;19915;-53
2021/04/03 07:08:41;;;;;;;;;;;23.30;41.40;;;;;;5114467;28;19907;-53
2021/04/03 07:11:08;;;;;;;;;;;23.30;41.40;;;;;;5114970;28;19919;-53
2021/04/03 07:13:35;;;;;;;;;;;23.30;41.40;;;;;;5113956;28;19941;-53
2021/04/03 07:16:03;;;;;;;;;;;23.30;41.40;;;;;;5114741;28;20012;-52
2021/04/03 07:18:29;;;;;;;;;;;23.30;41.40;;;;;;5106449;28;19972;-51
2021/04/03 07:20:55;;;;;;;;;;;23.40;41.50;;;;;;5114321;28;19924;-52
2021/04/03 07:23:21;;;;;;;;;;;23.40;41.50;;;;;;5096232;28;19923;-52
2021/04/03 07:25:47;;;;;;;;;;;23.40;41.50;;;;;;5114615;28;20002;-52
2021/04/03 07:28:15;;;;;;;;;;;23.40;41.40;;;;;;5114257;28;19912;-54
2021/04/03 07:30:42;;;;;;;;;;;23.50;41.50;;;;;;5114569;28;19934;-53
2021/04/03 07:33:10;;;;;;;;;;;23.50;41.50;;;;;;5114576;28;19964;-51
2021/04/03 07:35:44;;;;;;;;;;;23.60;41.50;;;;;;5114149;28;19912;-53
2021/04/03 07:38:12;;;;;;;;;;;23.60;41.50;;;;;;5114198;28;19918;-52
2021/04/03 07:40:42;;;;;;;;;;;23.60;41.50;;;;;;5113076;28;19921;-54
2021/04/03 07:43:27;;;;;;;;;;;23.70;41.60;;;;;;5114182;28;19916;-55
2021/04/03 07:45:52;;;;;;;;;;;23.60;41.50;;;;;;5096211;28;20388;-55
2021/04/03 07:48:37;;;;;;;;;;;23.70;41.60;;;;;;5113947;28;19915;-56
2021/04/03 07:51:07;;;;;;;;;;;23.70;41.60;;;;;;5114382;28;19976;-55
2021/04/03 07:53:34;;;;;;;;;;;23.70;41.60;;;;;;5095636;28;19960;-54
2021/04/03 07:56:00;;;;;;;;;;;23.80;41.60;;;;;;5114429;28;19911;-54
2021/04/03 07:58:26;;;;;;;;;;;23.80;41.60;;;;;;5095996;28;19945;-55
2021/04/03 08:00:52;;;;;;;;;;;23.80;41.60;;;;;;5095467;28;19912;-55
2021/04/03 08:03:28;;;;;;;;;;;23.90;41.60;;;;;;5095454;28;19980;-55
2021/04/03 08:05:58;;;;;;;;;;;23.90;41.60;;;;;;5113835;28;20348;-56
2021/04/03 08:08:25;;;;;;;;;;;23.90;41.60;;;;;;5095864;28;19995;-54
2021/04/03 08:11:03;;;;;;;;;;;23.90;41.50;;;;;;5113678;28;19950;-54
2021/04/03 08:13:30;;;;;;;;;;;23.90;41.50;;;;;;5113658;28;19912;-55
2021/04/03 08:15:56;;;;;;;;;;;24.00;41.50;;;;;;5113991;28;20285;-54
2021/04/03 08:18:21;;;;;;;;;;;24.00;41.50;;;;;;5113481;28;19915;-55
2021/04/03 08:20:51;;;;;;;;;;;24.10;41.50;;;;;;5112963;28;19916;-55
2021/04/03 08:23:28;;;;;;;;;;;24.10;41.50;;;;;;5113683;28;19915;-55
2021/04/03 08:25:54;;;;;;;;;;;24.10;41.50;;;;;;5113595;28;19912;-54
2021/04/03 08:28:20;;;;;;;;;;;24.20;41.50;;;;;;5113514;28;19911;-55
2021/04/03 08:30:46;;;;;;;;;;;24.20;41.50;;;;;;5113797;28;19912;-55
2021/04/03 08:33:13;;;;;;;;;;;24.20;41.50;;;;;;5106164;28;20276;-55
2021/04/03 08:35:40;;;;;;;;;;;24.20;41.40;;;;;;5113316;28;19912;-55
2021/04/03 08:38:09;;;;;;;;;;;24.30;41.50;;;;;;5104822;28;19912;-55
2021/04/03 08:40:35;;;;;;;;;;;24.30;41.40;;;;;;5113256;28;19912;-55
2021/04/03 08:43:01;;;;;;;;;;;24.30;41.40;;;;;;5112905;28;19951;-54
2021/04/03 08:45:37;;;;;;;;;;;24.30;41.40;;;;;;5113318;28;20377;-53
2021/04/03 08:48:06;;;;;;;;;;;24.40;41.40;;;;;;5084884;28;19911;-53
2021/04/03 08:50:32;;;;;;;;;;;24.40;41.40;;;;;;5094770;28;19912;-54
2021/04/03 08:53:01;;;;;;;;;;;24.50;41.40;;;;;;5112632;28;19912;-52
2021/04/03 08:55:28;;;;;;;;;;;24.50;41.30;;;;;;5113453;28;19915;-52
2021/04/03 08:57:55;;;;;;;;;;;24.50;41.30;;;;;;5113190;28;20373;-52
2021/04/03 09:00:21;;;;;;;;;;;24.50;41.30;;;;;;5112934;28;19919;-53
2021/04/03 09:02:47;;;;;;;;;;;24.60;41.30;;;;;;5108758;28;19923;-52
2021/04/03 09:05:14;;;;;;;;;;;24.60;41.30;;;;;;5114282;28;19916;-52
2021/04/03 09:07:41;;;;;;;;;;;24.70;41.30;;;;;;5109188;28;19912;-52
2021/04/03 09:10:14;;;;;;;;;;;24.70;41.30;;;;;;5095119;28;19947;-52
2021/04/03 09:12:41;;;;;;;;;;;24.70;41.20;;;;;;5116891;28;19991;-54
2021/04/03 09:15:07;;;;;;;;;;;24.80;41.20;;;;;;5117323;28;20365;-55
2021/04/03 09:17:34;;;;;;;;;;;24.80;41.20;;;;;;5117033;28;20268;-54
2021/04/03 09:20:06;;;;;;;;;;;24.90;41.20;;;;;;5116960;28;19919;-54
2021/04/03 09:22:38;;;;;;;;;;;24.90;41.10;;;;;;5116776;28;20009;-54
2021/04/03 09:25:05;;;;;;;;;;;24.90;41.10;;;;;;5117334;28;19919;-54
2021/04/03 09:27:31;;;;;;;;;;;25.00;41.10;;;;;;5117090;28;19911;-54
2021/04/03 09:30:07;;;;;;;;;;;25.00;41.10;;;;;;5116859;28;20284;-54
2021/04/03 09:32:43;;;;;;;;;;;25.10;41.10;;;;;;5117036;28;20002;-54
2021/04/03 09:35:10;;;;;;;;;;;25.10;41.00;;;;;;5115903;28;20373;-54
2021/04/03 09:37:36;;;;;;;;;;;25.10;40.90;;;;;;5116764;28;19911;-55
2021/04/03 09:40:03;;;;;;;;;;;25.20;40.90;;;;;;5116921;28;19912;-55
2021/04/03 09:42:29;;;;;;;;;;;25.30;40.90;;;;;;5116570;28;19911;-55
2021/04/03 09:44:59;;;;;;;;;;;25.30;40.80;;;;;;5116703;28;19923;-56
2021/04/03 09:47:26;;;;;;;;;;;25.30;40.70;;;;;;5097838;28;19916;-56
2021/04/03 09:49:52;;;;;;;;;;;25.40;40.70;;;;;;5116604;28;19912;-56
2021/04/03 09:52:18;;;;;;;;;;;25.40;40.60;;;;;;5116601;28;19912;-56
2021/04/03 09:54:45;;;;;;;;;;;25.50;40.60;;;;;;5116627;28;19934;-57
2021/04/03 09:57:11;;;;;;;;;;;25.50;40.50;;;;;;5116001;28;19919;-56
2021/04/03 09:59:38;;;;;;;;;;;25.50;40.50;;;;;;5082252;28;19935;-56
2021/04/03 10:02:04;;;;;;;;;;;25.60;40.50;;;;;;5077880;28;19923;-58
2021/04/03 10:04:31;;;;;;;;;;;25.60;40.50;;;;;;5109287;28;19912;-59
2021/04/03 10:06:57;;;;;;;;;;;25.70;40.50;;;;;;5099031;28;19908;-62
2021/04/03 10:09:23;;;;;;;;;;;25.70;40.40;;;;;;5113360;28;19918;-56
2021/04/03 10:11:50;;;;;;;;;;;25.80;40.50;;;;;;5115793;28;20285;-56
2021/04/03 10:14:16;;;;;;;;;;;25.80;40.40;;;;;;5114804;28;19919;-55
2021/04/03 10:16:42;;;;;;;;;;;25.90;40.30;;;;;;5097932;28;19912;-56
2021/04/03 10:19:09;;;;;;;;;;;26.00;40.20;;;;;;5115490;28;19908;-55
2021/04/03 10:21:35;;;;;;;;;;;26.00;40.00;;;;;;5080522;28;19961;-58
2021/04/03 10:24:01;;;;;;;;;;;26.10;40.00;;;;;;5115096;28;19961;-59
2021/04/03 10:26:27;;;;;;;;;;;26.10;39.90;;;;;;5097578;28;20307;-59
2021/04/03 10:28:53;;;;;;;;;;;26.20;39.80;;;;;;5115440;28;19915;-57
2021/04/03 10:31:19;;;;;;;;;;;26.30;39.70;;;;;;5115389;28;19918;-58
2021/04/03 10:33:45;;;;;;;;;;;26.40;39.60;;;;;;5096902;28;19916;-57
2021/04/03 10:36:11;;;;;;;;;;;26.40;39.50;;;;;;5114916;28;20027;-58
2021/04/03 10:38:37;;;;;;;;;;;26.50;39.50;;;;;;5114914;28;20034;-57
2021/04/03 10:41:03;;;;;;;;;;;26.60;39.30;;;;;;5114161;28;20523;-57
2021/04/03 10:43:29;;;;;;;;;;;26.70;39.10;;;;;;5095819;28;19923;-58
2021/04/03 10:45:55;;;;;;;;;;;26.80;38.80;;;;;;5114437;28;19916;-60
2021/04/03 10:48:21;;;;;;;;;;;26.90;38.50;;;;;;5113353;28;19915;-59
2021/04/03 10:50:47;;;;;;;;;;;26.90;38.50;;;;;;5095735;28;19908;-59
2021/04/03 10:53:13;;;;;;;;;;;27.10;38.60;;;;;;5110384;28;20285;-59
2021/04/03 10:55:39;;;;;;;;;;;27.10;38.60;;;;;;5093620;28;19916;-59
2021/04/03 10:58:05;;;;;;;;;;;27.20;38.40;;;;;;5093454;28;20395;-61
2021/04/03 11:00:31;;;;;;;;;;;27.30;38.10;;;;;;5093093;28;19991;-61
2021/04/03 11:02:57;;;;;;;;;;;27.40;37.70;;;;;;5113457;28;20361;-59
2021/04/03 11:05:23;;;;;;;;;;;27.50;37.50;;;;;;5113447;28;19919;-60
2021/04/03 11:07:50;;;;;;;;;;;27.60;37.30;;;;;;5112910;28;20002;-60
2021/04/03 11:10:16;;;;;;;;;;;27.70;37.10;;;;;;5113026;28;20466;-60
2021/04/03 11:12:41;;;;;;;;;;;27.80;36.70;;;;;;5113108;28;20273;-61
2021/04/03 11:15:08;;;;;;;;;;;27.80;36.50;;;;;;5113121;28;19912;-61
2021/04/03 11:17:34;;;;;;;;;;;27.80;36.10;;;;;;5113286;28;19912;-61
2021/04/03 11:20:00;;;;;;;;;;;27.90;36.20;;;;;;5094611;28;20403;-61
2021/04/03 11:22:26;;;;;;;;;;;27.90;36.00;;;;;;5112650;28;20362;-60
2021/04/03 11:24:52;;;;;;;;;;;28.00;35.90;;;;;;5094434;28;19912;-60
2021/04/03 11:27:18;;;;;;;;;;;28.00;35.80;;;;;;5112654;28;19919;-60
2021/04/03 11:29:44;;;;;;;;;;;28.00;35.60;;;;;;5112875;28;19938;-60
2021/04/03 11:32:10;;;;;;;;;;;28.00;35.50;;;;;;5112426;28;19911;-60
2021/04/03 11:34:36;;;;;;;;;;;28.00;35.30;;;;;;5112969;28;20275;-60
2021/04/03 11:37:02;;;;;;;;;;;28.00;35.20;;;;;;5112736;28;19912;-59
2021/04/03 11:39:27;;;;;;;;;;;28.10;35.30;;;;;;5112563;28;19920;-59
2021/04/03 11:41:53;;;;;;;;;;;28.10;35.40;;;;;;5112525;28;20006;-60
2021/04/03 11:44:21;;;;;;;;;;;28.10;35.50;;;;;;5113023;28;19994;-59
2021/04/03 11:46:47;;;;;;;;;;;28.00;35.50;;;;;;5113066;28;19960;-59
2021/04/03 11:49:13;;;;;;;;;;;28.00;36.00;;;;;;5112962;28;20357;-59
2021/04/03 11:51:39;;;;;;;;;;;28.10;35.50;;;;;;5112733;28;19912;-60
2021/04/03 11:54:04;;;;;;;;;;;28.10;35.40;;;;;;5112170;28;19918;-59
2021/04/03 11:56:30;;;;;;;;;;;28.10;35.20;;;;;;5112194;28;20369;-59
2021/04/03 11:58:56;;;;;;;;;;;28.10;35.20;;;;;;5112298;28;20002;-59
2021/04/03 12:01:22;;;;;;;;;;;28.10;35.10;;;;;;5092876;28;19918;-60
2021/04/03 12:03:48;;;;;;;;;;;28.10;35.10;;;;;;5112634;28;19912;-61
2021/04/03 12:06:14;;;;;;;;;;;28.20;35.30;;;;;;5113421;28;19912;-60
2021/04/03 12:08:39;;;;;;;;;;;28.20;35.20;;;;;;5112115;28;20445;-61
2021/04/03 12:11:05;;;;;;;;;;;28.20;35.10;;;;;;5093214;28;20289;-60
2021/04/03 12:13:31;;;;;;;;;;;28.20;35.10;;;;;;5111527;28;19942;-61
2021/04/03 12:15:57;;;;;;;;;;;28.20;35.10;;;;;;5111533;28;20330;-61
2021/04/03 12:18:23;;;;;;;;;;;28.20;35.10;;;;;;5111781;28;20358;-63
2021/04/03 12:20:49;;;;;;;;;;;28.20;35.10;;;;;;5110882;28;19915;-61
2021/04/03 12:23:14;;;;;;;;;;;28.20;35.20;;;;;;5111894;28;20433;-61
2021/04/03 12:25:40;;;;;;;;;;;28.30;35.20;;;;;;5111748;28;19951;-61
2021/04/03 12:28:06;;;;;;;;;;;28.30;35.20;;;;;;5111795;28;19919;-61
2021/04/03 12:30:32;;;;;;;;;;;28.30;35.10;;;;;;5111170;28;19919;-62
2021/04/03 12:32:58;;;;;;;;;;;28.30;35.20;;;;;;5112125;28;20422;-61
2021/04/03 12:35:24;;;;;;;;;;;28.30;35.10;;;;;;5111782;28;19943;-61
2021/04/03 12:37:50;;;;;;;;;;;28.40;35.80;;;;;;5112878;28;19919;-61
2021/04/03 12:40:15;;;;;;;;;;;28.40;35.70;;;;;;5116223;28;19916;-61
2021/04/03 12:42:41;;;;;;;;;;;28.40;35.00;;;;;;5092872;28;19919;-62
2021/04/03 12:45:08;;;;;;;;;;;28.50;35.00;;;;;;5077680;28;19912;-63
2021/04/03 12:47:34;;;;;;;;;;;28.50;35.00;;;;;;5099658;28;20266;-54
2021/04/03 12:50:00;;;;;;;;;;;28.50;35.00;;;;;;5116916;28;20396;-55
2021/04/03 12:52:26;;;;;;;;;;;28.50;34.90;;;;;;5098757;28;19942;-56
2021/04/03 12:54:52;;;;;;;;;;;28.60;35.00;;;;;;5117103;28;20017;-55
2021/04/03 12:57:17;;;;;;;;;;;28.60;35.00;;;;;;5115901;28;20010;-55
2021/04/03 12:59:43;;;;;;;;;;;28.60;34.90;;;;;;5115948;28;19912;-60
2021/04/03 13:02:09;;;;;;;;;;;28.60;34.90;;;;;;5115876;28;19922;-62
2021/04/03 13:04:39;;;;;;;;;;;28.60;34.90;;;;;;5097439;28;19922;-55
2021/04/03 13:07:05;;;;;;;;;;;28.70;34.90;;;;;;5116571;28;20007;-55
2021/04/03 13:09:30;;;;;;;;;;;28.60;34.90;;;;;;5098096;28;20361;-55
2021/04/03 13:11:56;;;;;;;;;;;28.70;34.90;;;;;;5116198;28;19916;-61
2021/04/03 13:14:22;;;;;;;;;;;28.70;34.80;;;;;;5116047;28;19908;-61
2021/04/03 13:16:48;;;;;;;;;;;28.70;34.80;;;;;;5115756;28;19912;-62
2021/04/03 13:19:14;;;;;;;;;;;28.80;34.80;;;;;;5097495;28;20272;-62
2021/04/03 13:21:41;;;;;;;;;;;28.80;34.80;;;;;;5079782;28;19924;-56
2021/04/03 13:24:07;;;;;;;;;;;28.80;34.80;;;;;;5116427;28;19919;-56
2021/04/03 13:26:33;;;;;;;;;;;28.90;34.80;;;;;;5115534;28;20295;-56
2021/04/03 13:28:59;;;;;;;;;;;28.90;34.70;;;;;;5115793;28;20030;-56
2021/04/03 13:31:27;;;;;;;;;;;28.80;34.60;;;;;;5096979;28;20381;-62
2021/04/03 13:33:53;;;;;;;;;;;28.90;34.60;;;;;;5115082;27;19912;-61
2021/04/03 13:36:19;;;;;;;;;;;28.90;34.60;;;;;;5114795;28;19919;-62
2021/04/03 13:38:45;;;;;;;;;;;28.90;34.60;;;;;;5114919;28;20270;-61
2021/04/03 13:41:11;;;;;;;;;;;29.00;34.60;;;;;;5114361;28;19966;-62
2021/04/03 13:43:37;;;;;;;;;;;29.00;34.50;;;;;;5114825;28;20289;-56
2021/04/03 13:46:03;;;;;;;;;;;29.00;34.40;;;;;;5115573;28;19908;-55
2021/04/03 13:48:29;;;;;;;;;;;29.00;34.40;;;;;;5115003;28;20603;-62
2021/04/03 13:50:54;;;;;;;;;;;29.10;34.40;;;;;;5114583;28;19918;-61
2021/04/03 13:53:20;;;;;;;;;;;29.10;34.30;;;;;;5114609;28;19985;-62
2021/04/03 13:55:50;;;;;;;;;;;29.10;34.20;;;;;;5114429;28;19912;-60
2021/04/03 13:58:19;;;;;;;;;;;29.10;34.10;;;;;;5114467;28;19923;-61
2021/04/03 14:00:45;;;;;;;;;;;29.20;34.10;;;;;;5113976;28;19920;-60
2021/04/03 14:03:14;;;;;;;;;;;29.20;34.00;;;;;;5125242;27;19916;-55
2021/04/03 14:05:40;;;;;;;;;;;29.20;33.90;;;;;;5096727;28;19912;-55
2021/04/03 14:08:07;;;;;;;;;;;29.20;33.90;;;;;;5115406;28;19919;-55
2021/04/03 14:10:33;;;;;;;;;;;29.20;33.70;;;;;;5115043;28;19912;-57
2021/04/03 14:12:59;;;;;;;;;;;29.20;33.70;;;;;;5114747;28;19912;-56
2021/04/03 14:15:25;;;;;;;;;;;29.20;33.60;;;;;;5095850;28;20119;-55
2021/04/03 14:17:51;;;;;;;;;;;29.30;33.70;;;;;;5114190;28;19995;-55
2021/04/03 14:20:17;;;;;;;;;;;29.30;33.60;;;;;;5114784;28;20045;-56